createdAt,value
2023-04-04T00:00:43.493Z,6.10
2023-04-04T00:03:12.953Z,6.00
2023-04-04T00:05:40.972Z,6.00
2023-04-04T00:08:08.985Z,5.90
2023-04-04T00:10:37.033Z,5.90
2023-04-04T00:13:05.745Z,5.80
2023-04-04T00:15:34.573Z,5.80
2023-04-04T00:18:02.868Z,5.80
2023-04-04T00:20:32.672Z,5.80
2023-04-04T00:23:00.691Z,5.70
2023-04-04T00:25:28.875Z,5.70
2023-04-04T00:28:00.553Z,5.70
2023-04-04T00:30:29.566Z,5.80
2023-04-04T00:32:58.377Z,5.80
2023-04-04T00:35:26.594Z,5.80
2023-04-04T00:37:56.292Z,5.90
2023-04-04T00:40:24.295Z,5.90
2023-04-04T00:42:52.792Z,5.80
2023-04-04T00:45:21.463Z,5.70
2023-04-04T00:47:51.525Z,5.60
2023-04-04T00:50:19.809Z,5.50
2023-04-04T00:52:48.030Z,5.50
2023-04-04T00:55:17.664Z,5.50
2023-04-04T00:57:45.727Z,5.50
2023-04-04T01:00:16.039Z,5.50
2023-04-04T01:02:44.324Z,5.40
2023-04-04T01:05:12.708Z,5.40
2023-04-04T01:07:42.823Z,5.30
2023-04-04T01:10:12.219Z,5.20
2023-04-04T01:12:43.103Z,5.30
2023-04-04T01:15:12.251Z,5.40
2023-04-04T01:17:41.443Z,5.40
2023-04-04T01:20:14.387Z,5.30
2023-04-04T01:22:48.592Z,5.30
2023-04-04T01:25:19.930Z,5.30
2023-04-04T01:27:58.087Z,5.30
2023-04-04T01:30:29.346Z,5.30
2023-04-04T01:33:03.053Z,5.30
2023-04-04T01:35:37.088Z,5.20
2023-04-04T01:38:15.515Z,5.20
2023-04-04T01:40:49.328Z,5.20
2023-04-04T01:43:19.500Z,5.20
2023-04-04T01:45:47.648Z,5.20
2023-04-04T01:48:16.670Z,5.10
2023-04-04T01:50:48.027Z,5.10
2023-04-04T01:53:16.634Z,5.00
2023-04-04T01:55:44.949Z,5.00
2023-04-04T01:58:14.048Z,5.00
2023-04-04T02:00:43.445Z,4.90
2023-04-04T02:03:11.956Z,4.80
2023-04-04T02:05:40.980Z,4.70
2023-04-04T02:08:09.878Z,4.80
2023-04-04T02:10:46.812Z,4.80
2023-04-04T02:13:14.782Z,4.80
2023-04-04T02:15:44.673Z,4.70
2023-04-04T02:18:12.732Z,4.70
2023-04-04T02:20:41.056Z,4.80
2023-04-04T02:23:09.352Z,4.80
2023-04-04T02:25:37.500Z,4.80
2023-04-04T02:28:05.613Z,4.80
2023-04-04T02:30:33.581Z,4.70
2023-04-04T02:33:05.626Z,4.70
2023-04-04T02:35:33.782Z,4.70
2023-04-04T02:38:01.776Z,4.70
2023-04-04T02:40:41.575Z,4.70
2023-04-04T02:43:10.137Z,4.70
2023-04-04T02:45:39.134Z,4.70
2023-04-04T02:48:23.044Z,4.70
2023-04-04T02:50:53.490Z,4.60
2023-04-04T02:53:21.722Z,4.60
2023-04-04T02:55:52.470Z,4.60
2023-04-04T02:58:20.647Z,4.60
2023-04-04T03:00:55.644Z,4.50
2023-04-04T03:03:29.872Z,4.50
2023-04-04T03:05:59.794Z,4.50
2023-04-04T03:08:29.081Z,4.50
2023-04-04T03:10:59.799Z,4.50
2023-04-04T03:13:28.311Z,4.50
2023-04-04T03:16:02.647Z,4.50
2023-04-04T03:18:36.115Z,4.40
2023-04-04T03:21:04.750Z,4.40
2023-04-04T03:23:32.743Z,4.40
2023-04-04T03:26:00.788Z,4.40
2023-04-04T03:28:29.159Z,4.40
2023-04-04T03:30:57.654Z,4.40
2023-04-04T03:33:27.507Z,4.30
2023-04-04T03:35:56.969Z,4.30
2023-04-04T03:38:25.034Z,4.30
2023-04-04T03:41:02.487Z,4.20
2023-04-04T03:43:31.468Z,4.10
2023-04-04T03:46:02.548Z,4.10
2023-04-04T03:48:30.673Z,4.20
2023-04-04T03:51:00.316Z,4.10
2023-04-04T03:53:28.423Z,4.10
2023-04-04T03:55:57.936Z,4.10
2023-04-04T03:58:28.235Z,4.10
2023-04-04T04:00:56.532Z,4.20
2023-04-04T04:03:28.189Z,4.20
2023-04-04T04:05:56.369Z,4.10
2023-04-04T04:08:25.837Z,4.10
2023-04-04T04:10:54.554Z,4.10
2023-04-04T04:13:22.917Z,4.10
2023-04-04T04:15:52.782Z,4.10
2023-04-04T04:18:23.129Z,4.00
2023-04-04T04:20:58.151Z,4.00
2023-04-04T04:23:27.953Z,4.00
2023-04-04T04:25:56.072Z,3.90
2023-04-04T04:28:33.951Z,3.90
2023-04-04T04:31:08.257Z,3.80
2023-04-04T04:33:42.375Z,3.80
2023-04-04T04:36:11.465Z,3.80
2023-04-04T04:38:54.761Z,3.80
2023-04-04T04:41:23.336Z,3.80
2023-04-04T04:43:53.433Z,3.80
2023-04-04T04:46:22.113Z,3.90
2023-04-04T04:48:50.825Z,3.80
2023-04-04T04:51:23.361Z,3.90
2023-04-04T04:53:55.556Z,3.90
2023-04-04T04:56:25.296Z,3.90
2023-04-04T04:58:57.120Z,3.90
2023-04-04T05:01:27.872Z,3.80
2023-04-04T05:03:57.956Z,3.80
2023-04-04T05:06:33.699Z,3.80
2023-04-04T05:09:03.777Z,3.80
2023-04-04T05:11:35.323Z,3.80
2023-04-04T05:14:04.711Z,3.80
2023-04-04T05:16:37.652Z,3.70
2023-04-04T05:19:07.052Z,3.70
2023-04-04T05:21:41.971Z,3.60
2023-04-04T05:24:17.133Z,3.70
2023-04-04T05:26:45.507Z,3.70
2023-04-04T05:29:13.628Z,3.70
2023-04-04T05:31:46.340Z,3.70
2023-04-04T05:34:19.351Z,3.70
2023-04-04T05:36:49.333Z,3.70
2023-04-04T05:39:18.980Z,3.80
2023-04-04T05:41:59.680Z,3.80
2023-04-04T05:44:30.285Z,3.80
2023-04-04T05:46:58.614Z,3.70
2023-04-04T05:49:28.050Z,3.70
2023-04-04T05:51:59.352Z,3.70
2023-04-04T05:54:29.310Z,3.70
2023-04-04T05:56:59.080Z,3.70
2023-04-04T05:59:39.507Z,3.80
2023-04-04T06:02:10.514Z,3.80
2023-04-04T06:04:42.341Z,3.70
2023-04-04T06:07:12.199Z,3.70
2023-04-04T06:09:41.647Z,3.70
2023-04-04T06:12:10.291Z,3.80
2023-04-04T06:14:38.869Z,3.80
2023-04-04T06:17:08.404Z,3.80
2023-04-04T06:19:36.778Z,3.80
2023-04-04T06:22:04.710Z,3.90
2023-04-04T06:24:37.548Z,3.90
2023-04-04T06:27:08.704Z,3.90
2023-04-04T06:29:37.856Z,4.00
2023-04-04T06:32:08.025Z,4.00
2023-04-04T06:34:39.759Z,4.10
2023-04-04T06:37:08.448Z,4.10
2023-04-04T06:39:43.601Z,4.10
2023-04-04T06:42:22.600Z,4.10
2023-04-04T06:44:52.638Z,4.20
2023-04-04T06:47:21.260Z,4.20
2023-04-04T06:49:49.299Z,4.20
2023-04-04T06:52:18.686Z,4.20
2023-04-04T06:54:46.863Z,4.20
2023-04-04T06:57:16.550Z,4.30
2023-04-04T06:59:46.017Z,4.30
2023-04-04T07:02:14.075Z,4.30
2023-04-04T07:04:42.860Z,4.40
2023-04-04T07:07:11.090Z,4.40
2023-04-04T07:09:39.334Z,4.50
2023-04-04T07:12:07.394Z,4.50
2023-04-04T07:14:35.445Z,4.60
2023-04-04T07:17:13.683Z,4.60
2023-04-04T07:19:49.899Z,4.60
2023-04-04T07:22:17.943Z,4.70
2023-04-04T07:24:46.002Z,4.70
2023-04-04T07:27:15.853Z,4.70
2023-04-04T07:29:43.893Z,4.70
2023-04-04T07:32:13.432Z,4.70
2023-04-04T07:34:41.709Z,4.80
2023-04-04T07:37:09.716Z,4.80
2023-04-04T07:39:37.910Z,4.90
2023-04-04T07:42:06.140Z,4.90
2023-04-04T07:44:34.257Z,4.90
2023-04-04T07:47:10.055Z,5.00
2023-04-04T07:49:39.905Z,5.00
2023-04-04T07:52:08.932Z,5.10
2023-04-04T07:54:37.104Z,5.10
2023-04-04T07:57:06.019Z,5.20
2023-04-04T07:59:34.218Z,5.20
2023-04-04T08:02:02.200Z,5.10
2023-04-04T08:04:30.296Z,5.20
2023-04-04T08:06:59.791Z,5.20
2023-04-04T08:09:34.163Z,5.20
2023-04-04T08:12:02.703Z,5.20
2023-04-04T08:14:31.334Z,5.20
2023-04-04T08:16:59.370Z,5.20
2023-04-04T08:19:27.368Z,5.30
2023-04-04T08:21:55.884Z,5.30
2023-04-04T08:24:27.008Z,5.30
2023-04-04T08:27:04.508Z,5.30
2023-04-04T08:29:34.285Z,5.30
2023-04-04T08:32:02.391Z,5.40
2023-04-04T08:34:30.528Z,5.40
2023-04-04T08:36:58.761Z,5.40
2023-04-04T08:39:28.250Z,5.40
2023-04-04T08:42:02.865Z,5.30
2023-04-04T08:44:31.874Z,5.30
2023-04-04T08:47:01.463Z,5.30
2023-04-04T08:49:30.972Z,5.30
2023-04-04T08:52:00.857Z,5.30
2023-04-04T08:54:32.922Z,5.30
2023-04-04T08:57:01.801Z,5.30
2023-04-04T08:59:29.972Z,5.40
2023-04-04T09:02:04.188Z,5.40
2023-04-04T09:04:32.968Z,5.50
2023-04-04T09:07:03.444Z,5.60
2023-04-04T09:09:33.446Z,5.60
2023-04-04T09:12:03.475Z,5.70
2023-04-04T09:14:32.336Z,5.70
2023-04-04T09:17:00.374Z,5.70
2023-04-04T09:19:28.505Z,5.70
2023-04-04T09:21:56.860Z,5.80
2023-04-04T09:24:24.923Z,5.80
2023-04-04T09:26:54.882Z,5.80
2023-04-04T09:29:23.267Z,5.80
2023-04-04T09:31:52.222Z,5.90
2023-04-04T09:34:21.323Z,5.90
2023-04-04T09:36:49.517Z,5.90
2023-04-04T09:39:17.577Z,6.00
2023-04-04T09:41:46.520Z,6.00
2023-04-04T09:44:17.398Z,6.00
2023-04-04T09:46:45.474Z,6.00
2023-04-04T09:49:21.058Z,6.10
2023-04-04T09:51:54.747Z,6.10
2023-04-04T09:54:29.628Z,6.00
2023-04-04T09:56:58.971Z,6.00
2023-04-04T09:59:29.299Z,6.00
2023-04-04T10:01:57.514Z,6.10
2023-04-04T10:04:27.225Z,6.10
2023-04-04T10:06:55.889Z,6.10
2023-04-04T10:09:24.391Z,6.20
2023-04-04T10:11:52.448Z,6.20
2023-04-04T10:14:34.453Z,6.20
2023-04-04T10:17:10.277Z,6.20
2023-04-04T10:19:39.292Z,6.20
2023-04-04T10:22:07.444Z,6.20
2023-04-04T10:24:35.822Z,6.10
2023-04-04T10:27:03.996Z,6.20
2023-04-04T10:29:32.496Z,6.20
2023-04-04T10:32:06.766Z,6.20
2023-04-04T10:34:43.400Z,6.20
2023-04-04T10:37:16.746Z,6.30
2023-04-04T10:39:51.200Z,6.40
2023-04-04T10:42:20.807Z,6.40
2023-04-04T10:44:49.179Z,6.40
2023-04-04T10:47:21.767Z,6.40
2023-04-04T10:49:51.287Z,6.40
2023-04-04T10:52:20.947Z,6.40
2023-04-04T10:54:52.300Z,6.30
2023-04-04T10:57:21.317Z,6.40
2023-04-04T10:59:59.825Z,6.40
2023-04-04T11:02:48.229Z,6.40
2023-04-04T11:05:22.966Z,6.20
2023-04-04T11:08:07.637Z,6.30
2023-04-04T11:10:38.434Z,6.40
2023-04-04T11:13:13.842Z,6.40
2023-04-04T11:15:55.839Z,6.50
2023-04-04T11:18:49.250Z,6.50
2023-04-04T11:21:18.622Z,6.60
2023-04-04T11:24:14.190Z,6.60
2023-04-04T11:26:45.367Z,6.70
2023-04-04T11:29:23.955Z,6.70
2023-04-04T11:31:52.311Z,6.80
2023-04-04T11:34:38.823Z,6.80
2023-04-04T11:37:17.677Z,6.80
2023-04-04T11:39:56.523Z,6.80
2023-04-04T11:42:24.688Z,6.90
2023-04-04T11:45:07.014Z,6.90
2023-04-04T11:47:35.029Z,6.90
2023-04-04T11:50:10.782Z,6.80
2023-04-04T11:52:39.417Z,6.90
2023-04-04T11:55:16.681Z,6.90
2023-04-04T11:57:44.739Z,6.90
2023-04-04T12:00:15.628Z,6.80
2023-04-04T12:02:43.793Z,6.80
2023-04-04T12:05:14.645Z,6.80
2023-04-04T12:07:42.905Z,6.90
2023-04-04T12:10:11.812Z,6.90
2023-04-04T12:12:40.483Z,7.00
2023-04-04T12:15:17.465Z,7.10
2023-04-04T12:17:49.042Z,7.10
2023-04-04T12:20:18.746Z,7.10
2023-04-04T12:22:50.808Z,7.20
2023-04-04T12:25:20.814Z,7.00
2023-04-04T12:27:49.631Z,7.00
2023-04-04T12:30:18.879Z,7.10
2023-04-04T12:32:48.294Z,7.20
2023-04-04T12:35:18.811Z,7.30
2023-04-04T12:37:59.536Z,7.40
2023-04-04T12:40:37.147Z,7.50
2023-04-04T12:43:09.507Z,7.70
2023-04-04T12:48:31.633Z,7.80
2023-04-04T12:51:01.768Z,7.90
2023-04-04T12:53:32.893Z,8.00
2023-04-04T12:56:03.548Z,8.20
2023-04-04T13:01:22.521Z,8.30
2023-04-04T13:03:51.045Z,8.30
2023-04-04T13:06:21.446Z,8.30
2023-04-04T13:08:53.596Z,8.20
2023-04-04T13:11:22.310Z,8.10
2023-04-04T13:14:01.692Z,8.20
2023-04-04T13:16:35.501Z,8.10
2023-04-04T13:19:03.816Z,8.00
2023-04-04T13:21:33.188Z,8.00
2023-04-04T13:24:03.872Z,8.10
2023-04-04T13:26:32.968Z,8.10
2023-04-04T13:29:01.286Z,8.00
2023-04-04T13:31:29.442Z,8.10
2023-04-04T13:33:57.479Z,8.10
2023-04-04T13:36:26.994Z,8.20
2023-04-04T13:38:56.496Z,8.30
2023-04-04T13:41:24.518Z,8.30
2023-04-04T13:43:53.264Z,8.40
2023-04-04T13:46:21.806Z,8.40
2023-04-04T13:48:49.838Z,8.50
2023-04-04T13:51:17.848Z,8.60
2023-04-04T13:53:46.156Z,8.70
2023-04-04T13:56:18.873Z,8.70
2023-04-04T13:58:47.297Z,8.70
2023-04-04T14:01:15.449Z,8.70
2023-04-04T14:03:43.442Z,8.80
2023-04-04T14:06:11.497Z,8.90
2023-04-04T14:08:40.177Z,9.00
2023-04-04T14:11:08.503Z,9.10
2023-04-04T14:13:38.094Z,9.20
2023-04-04T14:16:08.052Z,9.20
2023-04-04T14:18:36.192Z,9.20
2023-04-04T14:21:04.609Z,9.10
2023-04-04T14:23:32.960Z,9.10
2023-04-04T14:26:01.153Z,9.20
2023-04-04T14:28:29.402Z,9.30
2023-04-04T14:30:58.797Z,9.30
2023-04-04T14:33:27.123Z,9.30
2023-04-04T14:35:55.078Z,9.20
2023-04-04T14:38:23.085Z,9.10
2023-04-04T14:40:51.087Z,9.10
2023-04-04T14:43:19.108Z,9.20
2023-04-04T14:45:47.121Z,9.30
2023-04-04T14:48:16.627Z,9.50
2023-04-04T14:50:45.831Z,9.70
2023-04-04T14:53:14.071Z,9.70
2023-04-04T14:55:42.619Z,9.70
2023-04-04T14:58:10.722Z,9.80
2023-04-04T15:00:39.524Z,9.90
2023-04-04T15:03:08.417Z,10.00
2023-04-04T15:05:37.991Z,10.20
2023-04-04T15:08:06.091Z,10.50
2023-04-04T15:10:34.161Z,10.60
2023-04-04T15:13:02.154Z,10.70
2023-04-04T15:15:30.196Z,11.20
2023-04-04T15:17:58.251Z,12.00
2023-04-04T15:20:26.392Z,12.60
2023-04-04T15:22:55.737Z,12.90
2023-04-04T15:25:23.948Z,13.40
2023-04-04T15:27:52.066Z,13.90
2023-04-04T15:30:20.184Z,14.50
2023-04-04T15:32:48.312Z,15.00
2023-04-04T15:35:18.253Z,15.70
2023-04-04T15:37:46.429Z,16.30
2023-04-04T15:40:16.194Z,16.90
2023-04-04T15:42:44.157Z,17.40
2023-04-04T15:45:13.272Z,17.50
2023-04-04T15:47:41.676Z,17.90
2023-04-04T15:50:11.611Z,18.00
2023-04-04T15:52:39.806Z,18.40
2023-04-04T15:55:12.585Z,18.40
2023-04-04T15:57:44.403Z,18.40
2023-04-04T16:00:14.932Z,18.80
2023-04-04T16:02:43.235Z,19.10
2023-04-04T16:05:11.660Z,19.80
2023-04-04T16:07:39.688Z,20.50
2023-04-04T16:10:08.940Z,21.20
2023-04-04T16:12:36.901Z,21.70
2023-04-04T16:15:07.702Z,22.30
2023-04-04T16:17:35.856Z,22.10
2023-04-04T16:20:04.226Z,22.10
2023-04-04T16:22:33.278Z,21.70
2023-04-04T16:25:01.326Z,21.00
2023-04-04T16:27:29.380Z,20.60
2023-04-04T16:29:57.485Z,21.30
2023-04-04T16:32:27.046Z,22.20
2023-04-04T16:34:55.398Z,22.70
2023-04-04T16:37:23.407Z,22.50
2023-04-04T16:39:52.012Z,22.70
2023-04-04T16:42:20.325Z,23.00
2023-04-04T16:44:48.382Z,23.10
2023-04-04T16:47:16.397Z,23.10
2023-04-04T16:49:47.968Z,22.40
2023-04-04T16:52:16.199Z,21.30
2023-04-04T16:54:44.175Z,20.30
2023-04-04T16:57:12.866Z,19.10
2023-04-04T16:59:40.911Z,18.90
2023-04-04T17:02:09.447Z,18.90
2023-04-04T17:04:41.095Z,19.20
2023-04-04T17:07:11.694Z,19.30
2023-04-04T17:09:39.754Z,19.10
2023-04-04T17:12:08.099Z,19.00
2023-04-04T17:14:36.562Z,18.70
2023-04-04T17:17:05.452Z,18.20
2023-04-04T17:19:35.131Z,17.70
2023-04-04T17:22:03.650Z,17.30
2023-04-04T17:24:33.344Z,16.90
2023-04-04T17:27:03.502Z,16.60
2023-04-04T17:29:31.791Z,16.30
2023-04-04T17:31:59.987Z,16.00
2023-04-04T17:34:28.190Z,15.50
2023-04-04T17:36:57.002Z,15.20
2023-04-04T17:39:25.232Z,14.80
2023-04-04T17:41:54.779Z,14.50
2023-04-04T17:44:23.013Z,14.20
2023-04-04T17:46:51.204Z,14.00
2023-04-04T17:49:19.938Z,13.70
2023-04-04T17:51:48.682Z,13.50
2023-04-04T17:54:17.333Z,13.40
2023-04-04T17:56:46.674Z,13.20
2023-04-04T17:59:17.448Z,13.10
2023-04-04T18:01:45.664Z,12.90
2023-04-04T18:04:13.760Z,12.80
2023-04-04T18:06:41.996Z,12.70
2023-04-04T18:09:10.901Z,12.60
2023-04-04T18:11:40.309Z,12.50
2023-04-04T18:14:08.669Z,12.40
2023-04-04T18:16:40.839Z,12.30
2023-04-04T18:19:09.982Z,12.20
2023-04-04T18:21:38.303Z,12.10
2023-04-04T18:24:07.865Z,12.00
2023-04-04T18:26:35.990Z,11.90
2023-04-04T18:29:04.246Z,11.80
2023-04-04T18:31:32.319Z,11.70
2023-04-04T18:34:01.846Z,11.70
2023-04-04T18:36:29.889Z,11.60
2023-04-04T18:38:57.890Z,11.50
2023-04-04T18:41:25.927Z,11.30
2023-04-04T18:43:54.051Z,11.20
2023-04-04T18:46:22.117Z,11.20
2023-04-04T18:48:50.142Z,11.10
2023-04-04T18:51:21.524Z,11.00
2023-04-04T18:53:50.191Z,11.00
2023-04-04T18:56:18.130Z,10.90
2023-04-04T18:58:46.215Z,10.70
2023-04-04T19:01:16.115Z,10.60
2023-04-04T19:03:46.998Z,10.50
2023-04-04T19:06:16.158Z,10.50
2023-04-04T19:08:46.016Z,10.50
2023-04-04T19:11:15.710Z,10.50
2023-04-04T19:13:43.935Z,10.50
2023-04-04T19:16:12.107Z,10.40
2023-04-04T19:18:40.141Z,10.40
2023-04-04T19:21:10.055Z,10.30
2023-04-04T19:23:39.041Z,10.30
2023-04-04T19:26:08.887Z,10.30
2023-04-04T19:28:37.328Z,10.30
2023-04-04T19:31:10.780Z,10.30
2023-04-04T19:33:39.611Z,10.20
2023-04-04T19:36:10.832Z,10.10
2023-04-04T19:38:42.544Z,10.00
2023-04-04T19:41:14.553Z,10.00
2023-04-04T19:43:43.690Z,10.00
2023-04-04T19:46:13.395Z,10.00
2023-04-04T19:48:48.538Z,10.00
2023-04-04T19:51:39.045Z,10.00
2023-04-04T19:54:09.699Z,10.00
2023-04-04T19:56:39.181Z,10.00
2023-04-04T19:59:10.051Z,10.00
2023-04-04T20:01:42.639Z,9.90
2023-04-04T20:04:18.904Z,9.90
2023-04-04T20:06:49.008Z,9.90
2023-04-04T20:09:34.606Z,9.90
2023-04-04T20:12:04.621Z,9.80
2023-04-04T20:14:32.622Z,9.80
2023-04-04T20:17:00.703Z,9.90
2023-04-04T20:19:30.006Z,9.80
2023-04-04T20:21:58.283Z,9.80
2023-04-04T20:24:26.541Z,9.80
2023-04-04T20:26:56.557Z,9.80
2023-04-04T20:29:26.923Z,9.80
2023-04-04T20:31:56.827Z,9.70
2023-04-04T20:34:45.489Z,9.70
2023-04-04T20:37:16.187Z,9.70
2023-04-04T20:39:49.428Z,9.70
2023-04-04T20:42:38.123Z,9.60
2023-04-04T20:45:40.199Z,9.60
2023-04-04T20:48:08.306Z,9.60
2023-04-04T20:50:47.359Z,9.60
2023-04-04T20:53:20.037Z,9.50
2023-04-04T20:55:48.360Z,9.50
2023-04-04T20:58:28.558Z,9.40
2023-04-04T21:00:59.847Z,9.40
2023-04-04T21:03:33.615Z,9.40
2023-04-04T21:06:09.566Z,9.40
2023-04-04T21:08:39.868Z,9.30
2023-04-04T21:11:07.954Z,9.30
2023-04-04T21:13:37.790Z,9.30
2023-04-04T21:16:09.300Z,9.20
2023-04-04T21:18:38.517Z,9.20
2023-04-04T21:21:12.030Z,9.20
2023-04-04T21:23:48.444Z,9.10
2023-04-04T21:26:34.567Z,9.10
2023-04-04T21:29:04.732Z,9.00
2023-04-04T21:31:39.176Z,9.00
2023-04-04T21:34:12.620Z,9.00
2023-04-04T21:36:41.400Z,8.90
2023-04-04T21:39:12.719Z,8.90
2023-04-04T21:41:41.923Z,8.80
2023-04-04T21:44:11.026Z,8.70
2023-04-04T21:46:42.019Z,8.70
2023-04-04T21:49:10.637Z,8.70
2023-04-04T21:51:38.930Z,8.60
2023-04-04T21:54:07.061Z,8.60
2023-04-04T21:56:35.122Z,8.50
2023-04-04T21:59:05.023Z,8.50
2023-04-04T22:01:33.214Z,8.40
2023-04-04T22:04:02.772Z,8.40
2023-04-04T22:06:31.037Z,8.30
2023-04-04T22:09:01.727Z,8.20
2023-04-04T22:11:30.565Z,8.20
2023-04-04T22:14:04.496Z,8.20
2023-04-04T22:16:36.951Z,8.10
2023-04-04T22:19:07.365Z,8.10
2023-04-04T22:21:37.034Z,8.00
2023-04-04T22:24:06.715Z,8.00
2023-04-04T22:26:34.903Z,7.90
2023-04-04T22:29:04.447Z,7.90
2023-04-04T22:31:34.392Z,7.90
2023-04-04T22:34:03.313Z,7.90
2023-04-04T22:36:34.346Z,7.90
2023-04-04T22:39:02.866Z,7.80
2023-04-04T22:41:31.328Z,7.80
2023-04-04T22:43:59.501Z,7.70
2023-04-04T22:46:28.778Z,7.60
2023-04-04T22:49:05.313Z,7.60
2023-04-04T22:51:45.156Z,7.60
2023-04-04T22:54:14.819Z,7.60
2023-04-04T22:56:43.083Z,7.60
2023-04-04T22:59:11.464Z,7.60
2023-04-04T23:01:39.692Z,7.50
2023-04-04T23:04:07.981Z,7.50
2023-04-04T23:06:38.348Z,7.40
2023-04-04T23:09:07.734Z,7.40
2023-04-04T23:11:36.164Z,7.30
2023-04-04T23:14:08.686Z,7.30
2023-04-04T23:16:37.379Z,7.20
2023-04-04T23:19:05.697Z,7.10
2023-04-04T23:21:33.907Z,7.00
2023-04-04T23:24:03.571Z,7.00
2023-04-04T23:26:32.607Z,7.00
2023-04-04T23:29:01.448Z,7.00
2023-04-04T23:31:29.580Z,7.00
2023-04-04T23:33:57.910Z,6.90
2023-04-04T23:36:26.002Z,6.90
2023-04-04T23:38:54.098Z,6.80
2023-04-04T23:41:23.570Z,6.90
2023-04-04T23:43:51.777Z,6.90
2023-04-04T23:46:19.886Z,6.90
2023-04-04T23:48:47.999Z,6.90
2023-04-04T23:51:17.495Z,6.80
2023-04-04T23:53:45.708Z,6.80
2023-04-04T23:56:13.768Z,6.80
2023-04-04T23:58:43.166Z,6.90
